createdAt,value
2023-09-06T00:01:19.188Z,11.05
2023-09-06T00:03:48.956Z,11.06
2023-09-06T00:06:18.765Z,11.04
2023-09-06T00:08:48.390Z,10.97
2023-09-06T00:11:21.099Z,10.96
2023-09-06T00:13:50.576Z,10.92
2023-09-06T00:16:20.221Z,10.87
2023-09-06T00:18:49.835Z,10.84
2023-09-06T00:21:21.831Z,10.79
2023-09-06T00:31:07.675Z,10.71
2023-09-06T00:33:37.842Z,10.60
2023-09-06T00:36:08.679Z,10.42
2023-09-06T00:38:39.115Z,10.34
2023-09-06T00:41:09.271Z,10.34
2023-09-06T00:43:38.760Z,10.34
2023-09-06T00:46:10.508Z,10.32
2023-09-06T00:48:41.883Z,10.28
2023-09-06T00:51:12.892Z,10.19
2023-09-06T00:53:44.891Z,10.16
2023-09-06T00:56:16.958Z,10.19
2023-09-06T00:58:47.504Z,10.17
2023-09-06T01:01:18.630Z,10.18
2023-09-06T01:03:48.111Z,10.21
2023-09-06T01:06:43.351Z,10.23
2023-09-06T01:09:13.833Z,10.23
2023-09-06T01:11:52.541Z,10.17
2023-09-06T01:14:21.949Z,10.06
2023-09-06T01:16:58.275Z,10.02
2023-09-06T01:19:32.799Z,10.01
2023-09-06T01:22:22.773Z,10.02
2023-09-06T01:24:55.929Z,10.08
2023-09-06T01:27:25.712Z,10.12
2023-09-06T01:29:55.797Z,10.14
2023-09-06T01:32:38.339Z,10.14
2023-09-06T01:35:11.552Z,10.11
2023-09-06T01:37:41.199Z,10.09
2023-09-06T01:40:24.250Z,10.04
2023-09-06T01:43:01.377Z,9.99
2023-09-06T01:45:33.970Z,9.98
2023-09-06T01:48:05.454Z,9.98
2023-09-06T01:50:37.477Z,9.97
2023-09-06T01:53:07.221Z,9.96
2023-09-06T01:55:38.176Z,9.97
2023-09-06T01:58:08.203Z,9.98
2023-09-06T02:00:39.825Z,9.97
2023-09-06T02:03:22.952Z,9.95
2023-09-06T02:05:55.343Z,9.97
2023-09-06T02:08:44.367Z,9.97
2023-09-06T02:11:16.862Z,9.97
2023-09-06T02:13:48.784Z,9.94
2023-09-06T02:16:25.447Z,9.92
2023-09-06T02:18:57.216Z,9.91
2023-09-06T02:24:13.401Z,9.90
2023-09-06T02:26:43.247Z,9.90
2023-09-06T02:29:21.022Z,9.89
2023-09-06T02:31:54.129Z,9.88
2023-09-06T02:37:12.678Z,9.81
2023-09-06T02:39:44.960Z,9.80
2023-09-06T02:42:18.035Z,9.80
2023-09-06T02:44:57.010Z,9.77
2023-09-06T02:47:30.965Z,9.75
2023-09-06T02:50:10.717Z,9.74
2023-09-06T02:56:26.674Z,9.73
2023-09-06T02:59:07.695Z,9.74
2023-09-06T03:02:00.607Z,9.73
2023-09-06T03:04:49.306Z,9.70
2023-09-06T03:07:22.994Z,9.66
2023-09-06T03:09:53.454Z,9.61
2023-09-06T03:12:34.193Z,9.55
2023-09-06T03:15:20.675Z,9.52
2023-09-06T03:18:16.945Z,9.47
2023-09-06T03:21:33.517Z,9.45
2023-09-06T03:25:25.841Z,9.38
2023-09-06T03:27:22.916Z,9.33
2023-09-06T03:30:02.728Z,9.29
2023-09-06T03:36:40.994Z,9.22
2023-09-06T03:46:37.920Z,9.10
2023-09-06T03:49:08.129Z,9.08
2023-09-06T03:51:38.638Z,9.03
2023-09-06T03:54:09.021Z,9.00
2023-09-06T03:56:41.267Z,8.99
2023-09-06T03:59:11.575Z,8.95
2023-09-06T04:01:50.655Z,8.92
2023-09-06T04:04:21.119Z,8.89
2023-09-06T04:06:50.533Z,8.84
2023-09-06T04:09:21.159Z,8.81
2023-09-06T04:11:51.511Z,8.77
2023-09-06T04:14:21.432Z,8.72
2023-09-06T04:16:51.319Z,8.68
2023-09-06T04:19:20.918Z,8.66
2023-09-06T04:21:51.410Z,8.65
2023-09-06T04:24:23.111Z,8.63
2023-09-06T04:26:56.089Z,8.61
2023-09-06T04:29:26.698Z,8.60
2023-09-06T04:31:57.030Z,8.59
2023-09-06T04:34:28.952Z,8.56
2023-09-06T04:36:58.568Z,8.54
2023-09-06T04:39:31.698Z,8.53
2023-09-06T04:42:02.954Z,8.53
2023-09-06T04:44:32.475Z,8.49
2023-09-06T04:47:02.078Z,8.47
2023-09-06T04:49:31.327Z,8.46
2023-09-06T04:52:00.380Z,8.46
2023-09-06T04:54:29.577Z,8.44
2023-09-06T04:57:00.563Z,8.43
2023-09-06T04:59:29.814Z,8.45
2023-09-06T05:01:59.009Z,8.48
2023-09-06T05:04:28.793Z,8.51
2023-09-06T05:06:58.403Z,8.47
2023-09-06T05:09:28.471Z,8.43
2023-09-06T05:11:58.136Z,8.37
2023-09-06T05:14:27.602Z,8.32
2023-09-06T05:16:57.157Z,8.27
2023-09-06T05:19:29.828Z,8.25
2023-09-06T05:21:59.838Z,8.22
2023-09-06T05:24:29.098Z,8.21
2023-09-06T05:26:58.951Z,8.19
2023-09-06T05:29:29.865Z,8.17
2023-09-06T05:32:00.610Z,8.15
2023-09-06T05:34:32.511Z,8.13
2023-09-06T05:37:02.277Z,8.10
2023-09-06T05:39:33.395Z,8.08
2023-09-06T05:42:03.810Z,8.06
2023-09-06T05:44:54.059Z,8.05
2023-09-06T05:47:24.160Z,8.04
2023-09-06T05:49:58.182Z,8.02
2023-09-06T05:52:30.916Z,7.97
2023-09-06T05:55:00.263Z,7.93
2023-09-06T05:57:29.467Z,7.89
2023-09-06T05:59:59.097Z,7.85
2023-09-06T06:02:31.879Z,7.82
2023-09-06T06:05:01.587Z,7.79
2023-09-06T06:07:30.793Z,7.79
2023-09-06T06:10:03.983Z,7.76
2023-09-06T06:12:34.969Z,7.72
2023-09-06T06:15:05.675Z,7.70
2023-09-06T06:17:34.750Z,7.67
2023-09-06T06:20:06.407Z,7.65
2023-09-06T06:22:43.113Z,7.64
2023-09-06T06:28:32.702Z,7.61
2023-09-06T06:31:02.674Z,7.63
2023-09-06T06:33:31.966Z,7.63
2023-09-06T06:36:03.747Z,7.61
2023-09-06T06:38:38.282Z,7.59
2023-09-06T06:41:10.828Z,7.59
2023-09-06T06:43:43.250Z,7.55
2023-09-06T06:46:39.986Z,7.52
2023-09-06T06:49:15.053Z,7.49
2023-09-06T06:51:44.583Z,7.50
2023-09-06T06:54:17.825Z,7.55
2023-09-06T06:56:47.263Z,7.57
2023-09-06T06:59:17.205Z,7.61
2023-09-06T07:01:49.968Z,7.65
2023-09-06T07:04:21.746Z,7.70
2023-09-06T07:06:54.146Z,7.74
2023-09-06T07:09:23.846Z,7.79
2023-09-06T07:11:58.171Z,7.83
2023-09-06T07:14:30.002Z,7.88
2023-09-06T07:17:23.465Z,7.90
2023-09-06T07:19:52.872Z,7.94
2023-09-06T07:22:22.164Z,7.97
2023-09-06T07:24:53.086Z,8.00
2023-09-06T07:27:23.405Z,7.99
2023-09-06T07:29:53.811Z,8.00
2023-09-06T07:32:25.705Z,8.02
2023-09-06T07:34:55.295Z,8.01
2023-09-06T07:37:24.369Z,8.03
2023-09-06T07:39:53.899Z,8.03
2023-09-06T07:42:23.022Z,7.99
2023-09-06T07:44:52.345Z,7.98
2023-09-06T07:50:29.002Z,7.99
2023-09-06T07:52:58.466Z,7.99
2023-09-06T07:55:29.964Z,8.00
2023-09-06T08:01:17.879Z,8.05
2023-09-06T08:06:20.986Z,8.04
2023-09-06T08:08:50.607Z,8.04
2023-09-06T08:11:20.840Z,8.06
2023-09-06T08:13:50.371Z,8.06
2023-09-06T08:16:21.615Z,8.06
2023-09-06T08:18:51.099Z,8.06
2023-09-06T08:21:21.308Z,8.07
2023-09-06T08:23:50.754Z,8.05
2023-09-06T08:26:20.102Z,8.04
2023-09-06T08:28:49.712Z,8.03
2023-09-06T08:31:19.052Z,8.03
2023-09-06T08:33:49.229Z,8.03
2023-09-06T08:36:18.690Z,8.03
2023-09-06T08:38:47.872Z,8.01
2023-09-06T08:41:17.797Z,7.98
2023-09-06T08:43:48.299Z,7.99
2023-09-06T08:46:27.742Z,8.00
2023-09-06T08:49:00.730Z,8.01
2023-09-06T08:51:38.090Z,8.00
2023-09-06T08:54:08.577Z,8.02
2023-09-06T08:56:38.412Z,8.01
2023-09-06T08:59:09.631Z,8.01
2023-09-06T09:01:40.215Z,7.97
2023-09-06T09:04:09.710Z,7.92
2023-09-06T09:06:45.343Z,7.91
2023-09-06T09:09:20.525Z,7.92
2023-09-06T09:11:55.295Z,7.92
2023-09-06T09:14:28.064Z,7.92
2023-09-06T09:17:00.666Z,7.95
2023-09-06T09:19:30.034Z,7.90
2023-09-06T09:21:59.478Z,7.89
2023-09-06T09:24:33.377Z,7.88
2023-09-06T09:27:02.678Z,7.83
2023-09-06T09:29:32.284Z,7.80
2023-09-06T09:35:34.904Z,7.78
2023-09-06T09:38:07.364Z,7.74
2023-09-06T09:43:07.742Z,7.70
2023-09-06T09:45:47.407Z,7.69
2023-09-06T09:48:18.664Z,7.68
2023-09-06T09:50:48.645Z,7.70
2023-09-06T09:53:26.829Z,7.69
2023-09-06T09:56:00.470Z,7.68
2023-09-06T09:58:35.280Z,7.66
2023-09-06T10:01:07.934Z,7.64
2023-09-06T10:03:41.208Z,7.65
2023-09-06T10:06:12.696Z,7.63
2023-09-06T10:08:47.353Z,7.60
2023-09-06T10:11:19.733Z,7.61
2023-09-06T10:13:51.136Z,7.60
2023-09-06T10:16:23.066Z,7.60
2023-09-06T10:18:52.914Z,7.59
2023-09-06T10:21:22.420Z,7.59
2023-09-06T10:23:52.057Z,7.58
2023-09-06T10:26:37.222Z,7.59
2023-09-06T10:29:13.379Z,7.58
2023-09-06T10:31:54.621Z,7.60
2023-09-06T10:34:24.882Z,7.59
2023-09-06T10:37:03.370Z,7.59
2023-09-06T10:39:33.087Z,7.57
2023-09-06T10:42:13.988Z,7.58
2023-09-06T10:45:00.803Z,7.55
2023-09-06T10:47:38.950Z,7.51
2023-09-06T10:50:24.307Z,7.52
2023-09-06T10:53:03.754Z,7.53
2023-09-06T10:55:49.608Z,7.54
2023-09-06T11:01:32.955Z,7.54
2023-09-06T11:04:27.070Z,7.54
2023-09-06T11:07:15.983Z,7.52
2023-09-06T11:09:52.980Z,7.51
2023-09-06T11:12:22.311Z,7.50
2023-09-06T11:14:57.742Z,7.47
2023-09-06T11:17:28.671Z,7.44
2023-09-06T11:19:58.074Z,7.44
2023-09-06T11:22:27.289Z,7.43
2023-09-06T11:24:57.360Z,7.40
2023-09-06T11:27:31.523Z,7.39
2023-09-06T11:30:26.522Z,7.38
2023-09-06T11:32:58.688Z,7.35
2023-09-06T11:35:40.815Z,7.34
2023-09-06T11:38:19.016Z,7.34
2023-09-06T11:40:48.891Z,7.32
2023-09-06T11:43:22.225Z,7.32
2023-09-06T11:45:55.938Z,7.30
2023-09-06T11:48:32.792Z,7.30
2023-09-06T11:51:12.523Z,7.31
2023-09-06T11:53:57.414Z,7.31
2023-09-06T11:56:35.462Z,7.30
2023-09-06T11:59:09.168Z,7.29
2023-09-06T12:01:43.097Z,7.29
2023-09-06T12:04:18.533Z,7.32
2023-09-06T12:06:49.766Z,7.33
2023-09-06T12:09:20.431Z,7.34
2023-09-06T12:11:50.089Z,7.36
2023-09-06T12:14:23.402Z,7.36
2023-09-06T12:16:53.272Z,7.35
2023-09-06T12:19:23.165Z,7.35
2023-09-06T12:21:52.456Z,7.33
2023-09-06T12:24:22.537Z,7.35
2023-09-06T12:26:54.403Z,7.36
2023-09-06T12:29:24.892Z,7.36
2023-09-06T12:31:55.587Z,7.36
2023-09-06T12:34:25.081Z,7.37
2023-09-06T12:36:54.453Z,7.37
2023-09-06T12:39:24.037Z,7.36
2023-09-06T12:41:54.347Z,7.36
2023-09-06T12:44:23.746Z,7.33
2023-09-06T12:46:52.982Z,7.32
2023-09-06T12:49:22.431Z,7.32
2023-09-06T12:51:52.847Z,7.32
2023-09-06T12:54:22.665Z,7.31
2023-09-06T12:57:11.275Z,7.29
2023-09-06T12:59:42.981Z,7.31
2023-09-06T13:02:12.870Z,7.32
2023-09-06T13:04:42.457Z,7.34
2023-09-06T13:07:12.358Z,7.34
2023-09-06T13:09:42.036Z,7.32
2023-09-06T13:12:11.992Z,7.34
2023-09-06T13:14:41.587Z,7.35
2023-09-06T13:17:10.662Z,7.39
2023-09-06T13:19:44.553Z,7.40
2023-09-06T13:22:16.595Z,7.40
2023-09-06T13:24:47.049Z,7.40
2023-09-06T13:30:24.025Z,7.37
2023-09-06T13:32:53.693Z,7.39
2023-09-06T13:35:23.176Z,7.42
2023-09-06T13:37:52.461Z,7.44
2023-09-06T13:40:21.971Z,7.45
2023-09-06T13:42:51.244Z,7.46
2023-09-06T13:45:21.083Z,7.46
2023-09-06T13:47:51.254Z,7.47
2023-09-06T13:50:21.343Z,7.49
2023-09-06T13:52:51.571Z,7.51
2023-09-06T13:55:21.112Z,7.50
2023-09-06T13:57:50.771Z,7.52
2023-09-06T14:00:21.419Z,7.51
2023-09-06T14:02:52.047Z,7.52
2023-09-06T14:05:21.612Z,7.54
2023-09-06T14:07:50.911Z,7.55
2023-09-06T14:10:20.191Z,7.56
2023-09-06T14:12:52.003Z,7.59
2023-09-06T14:15:21.130Z,7.63
2023-09-06T14:17:51.852Z,7.68
2023-09-06T14:20:21.233Z,7.69
2023-09-06T14:22:50.277Z,7.70
2023-09-06T14:25:19.330Z,7.71
2023-09-06T14:27:48.558Z,7.72
2023-09-06T14:30:21.409Z,7.76
2023-09-06T14:32:52.780Z,7.78
2023-09-06T14:35:22.252Z,7.82
2023-09-06T14:37:51.474Z,7.87
2023-09-06T14:40:23.998Z,7.93
2023-09-06T14:42:55.827Z,7.98
2023-09-06T14:45:27.497Z,8.02
2023-09-06T14:48:03.637Z,8.08
2023-09-06T14:50:35.470Z,8.16
2023-09-06T14:53:05.136Z,8.24
2023-09-06T14:55:36.892Z,8.27
2023-09-06T14:58:06.577Z,8.31
2023-09-06T15:00:35.980Z,8.37
2023-09-06T15:03:05.830Z,8.44
2023-09-06T15:05:34.987Z,8.52
2023-09-06T15:08:04.825Z,8.56
2023-09-06T15:10:34.338Z,8.59
2023-09-06T15:13:03.368Z,8.60
2023-09-06T15:15:32.277Z,8.61
2023-09-06T15:18:04.023Z,8.61
2023-09-06T15:20:37.910Z,8.65
2023-09-06T15:23:07.156Z,8.67
2023-09-06T15:25:36.851Z,8.72
2023-09-06T15:28:06.410Z,8.77
2023-09-06T15:30:35.421Z,8.78
2023-09-06T15:33:04.629Z,8.74
2023-09-06T15:35:33.521Z,8.78
2023-09-06T15:38:10.133Z,8.83
2023-09-06T15:40:42.146Z,8.86
2023-09-06T15:43:13.322Z,8.92
2023-09-06T15:45:46.693Z,8.97
2023-09-06T15:48:19.134Z,8.99
2023-09-06T15:50:48.321Z,9.04
2023-09-06T15:53:19.926Z,9.09
2023-09-06T15:55:54.863Z,9.10
2023-09-06T15:58:23.969Z,9.15
2023-09-06T16:00:53.362Z,9.17
2023-09-06T16:03:22.823Z,9.21
2023-09-06T16:05:52.262Z,9.22
2023-09-06T16:08:25.860Z,9.20
2023-09-06T16:10:58.247Z,9.19
2023-09-06T16:16:18.285Z,9.20
2023-09-06T16:18:51.925Z,9.19
2023-09-06T16:21:21.115Z,9.20
2023-09-06T16:23:51.365Z,9.20
2023-09-06T16:26:21.328Z,9.20
2023-09-06T16:28:50.955Z,9.19
2023-09-06T16:31:23.023Z,9.18
2023-09-06T16:33:52.046Z,9.19
2023-09-06T16:36:23.721Z,9.22
2023-09-06T16:38:55.823Z,9.24
2023-09-06T16:41:24.818Z,9.32
2023-09-06T16:43:54.281Z,9.35
2023-09-06T16:46:23.481Z,9.40
2023-09-06T16:48:55.656Z,9.45
2023-09-06T16:51:27.750Z,9.55
2023-09-06T16:53:59.711Z,9.67
2023-09-06T16:56:28.833Z,9.76
2023-09-06T16:59:01.952Z,9.78
2023-09-06T17:01:31.029Z,9.81
2023-09-06T17:04:04.726Z,9.85
2023-09-06T17:06:38.432Z,9.83
2023-09-06T17:09:10.588Z,9.78
2023-09-06T17:11:43.022Z,9.77
2023-09-06T17:14:13.709Z,9.77
2023-09-06T17:16:45.997Z,9.68
2023-09-06T17:19:15.001Z,9.63
2023-09-06T17:21:47.062Z,9.66
2023-09-06T17:24:17.074Z,9.70
2023-09-06T17:26:47.712Z,9.69
2023-09-06T17:29:17.267Z,9.64
2023-09-06T17:31:49.076Z,9.59
2023-09-06T17:34:18.731Z,9.48
2023-09-06T17:36:47.718Z,9.35
2023-09-06T17:39:16.908Z,9.24
2023-09-06T17:41:55.720Z,9.12
2023-09-06T17:44:24.863Z,9.02
2023-09-06T17:46:53.926Z,8.92
2023-09-06T17:49:23.550Z,8.74
2023-09-06T17:51:53.926Z,8.55
2023-09-06T17:54:29.978Z,8.43
2023-09-06T17:57:01.685Z,8.34
2023-09-06T17:59:32.449Z,8.25
2023-09-06T18:02:01.676Z,8.19
2023-09-06T18:04:32.030Z,8.15
2023-09-06T18:07:34.893Z,8.07
2023-09-06T18:10:07.549Z,8.01
2023-09-06T18:12:36.661Z,7.97
2023-09-06T18:15:13.969Z,8.05
2023-09-06T18:17:52.102Z,8.20
2023-09-06T18:20:30.524Z,8.33
2023-09-06T18:22:59.987Z,8.49
2023-09-06T18:25:29.047Z,8.68
2023-09-06T18:28:01.075Z,8.80
2023-09-06T18:30:29.906Z,8.83
2023-09-06T18:32:59.163Z,8.90
2023-09-06T18:35:29.362Z,8.97
2023-09-06T18:37:58.352Z,9.16
2023-09-06T18:40:38.811Z,9.35
2023-09-06T18:43:23.687Z,9.48
2023-09-06T18:45:58.172Z,9.57
2023-09-06T18:48:30.558Z,9.65
2023-09-06T18:51:00.001Z,9.79
2023-09-06T18:53:29.260Z,9.88
2023-09-06T18:56:03.377Z,9.93
2023-09-06T18:58:38.008Z,9.92
2023-09-06T19:01:19.816Z,9.99
2023-09-06T19:03:49.216Z,10.08
2023-09-06T19:06:18.262Z,10.16
2023-09-06T19:08:47.489Z,10.36
2023-09-06T19:11:22.479Z,10.49
2023-09-06T19:13:53.296Z,10.69
2023-09-06T19:16:26.539Z,10.84
2023-09-06T19:18:55.706Z,10.96
2023-09-06T19:21:24.819Z,11.05
2023-09-06T19:23:53.903Z,11.13
2023-09-06T19:26:22.917Z,11.27
2023-09-06T19:28:51.919Z,11.48
2023-09-06T19:31:21.499Z,11.68
2023-09-06T19:33:50.600Z,11.84
2023-09-06T19:36:19.824Z,11.91
2023-09-06T19:38:48.953Z,11.93
2023-09-06T19:41:18.592Z,11.97
2023-09-06T19:43:47.623Z,11.94
2023-09-06T19:46:16.737Z,11.99
2023-09-06T19:49:03.346Z,11.92
2023-09-06T19:51:36.443Z,11.77
2023-09-06T19:54:05.466Z,11.68
2023-09-06T19:56:34.549Z,11.63
2023-09-06T19:59:08.284Z,11.57
2023-09-06T20:01:38.182Z,11.44
2023-09-06T20:04:09.294Z,11.34
2023-09-06T20:06:40.715Z,11.26
2023-09-06T20:09:10.377Z,11.20
2023-09-06T20:11:42.292Z,11.15
2023-09-06T20:14:14.624Z,10.90
2023-09-06T20:16:43.870Z,10.56
2023-09-06T20:19:13.040Z,10.51
2023-09-06T20:21:42.132Z,10.48
2023-09-06T20:24:11.180Z,10.50
2023-09-06T20:26:43.483Z,10.46
2023-09-06T20:29:13.245Z,10.49
2023-09-06T20:31:43.416Z,10.60
2023-09-06T20:34:12.732Z,10.65
2023-09-06T20:36:41.769Z,10.81
2023-09-06T20:39:13.604Z,11.01
2023-09-06T20:41:43.329Z,11.17
2023-09-06T20:44:15.938Z,11.23
2023-09-06T20:46:49.407Z,11.24
2023-09-06T20:49:18.915Z,11.24
2023-09-06T20:51:49.396Z,11.27
2023-09-06T20:54:20.997Z,11.32
2023-09-06T20:56:49.939Z,11.46
2023-09-06T20:59:19.075Z,11.59
2023-09-06T21:01:50.933Z,11.67
2023-09-06T21:04:46.619Z,11.74
2023-09-06T21:07:22.238Z,11.84
2023-09-06T21:09:59.407Z,11.93
2023-09-06T21:12:35.778Z,12.07
2023-09-06T21:15:39.800Z,12.29
2023-09-06T21:18:11.742Z,12.46
2023-09-06T21:20:58.875Z,12.59
2023-09-06T21:23:32.563Z,12.70
2023-09-06T21:26:12.703Z,12.80
2023-09-06T21:29:18.150Z,12.89
2023-09-06T21:32:04.403Z,12.98
2023-09-06T21:34:42.445Z,13.07
2023-09-06T21:37:21.418Z,13.15
2023-09-06T21:40:13.547Z,13.21
2023-09-06T21:42:50.250Z,13.23
2023-09-06T21:45:34.627Z,13.28
2023-09-06T21:48:19.037Z,13.32
2023-09-06T21:50:58.263Z,13.37
2023-09-06T21:53:33.304Z,13.48
2023-09-06T21:59:04.054Z,13.75
2023-09-06T22:01:53.679Z,13.88
2023-09-06T22:04:34.380Z,14.01
2023-09-06T22:07:03.499Z,14.14
2023-09-06T22:09:41.238Z,14.27
2023-09-06T22:12:10.765Z,14.47
2023-09-06T22:14:41.372Z,14.65
2023-09-06T22:17:12.737Z,14.88
2023-09-06T22:19:42.316Z,15.07
2023-09-06T22:22:11.879Z,15.19
2023-09-06T22:24:42.806Z,15.28
2023-09-06T22:27:11.931Z,15.38
2023-09-06T22:29:41.017Z,15.54
2023-09-06T22:32:10.001Z,15.74
2023-09-06T22:34:39.370Z,16.02
2023-09-06T22:37:08.822Z,16.26
2023-09-06T22:39:38.307Z,16.53
2023-09-06T22:42:08.563Z,16.79
2023-09-06T22:44:37.762Z,17.08
2023-09-06T22:47:07.411Z,17.45
2023-09-06T22:49:38.660Z,17.67
2023-09-06T22:52:10.353Z,17.96
2023-09-06T22:54:41.423Z,18.34
2023-09-06T22:57:11.098Z,18.62
2023-09-06T22:59:40.004Z,18.63
2023-09-06T23:02:09.236Z,18.32
2023-09-06T23:04:40.972Z,17.89
2023-09-06T23:07:10.191Z,17.48
2023-09-06T23:09:40.042Z,17.18
2023-09-06T23:12:09.385Z,16.95
2023-09-06T23:14:43.736Z,16.75
2023-09-06T23:17:14.869Z,16.83
2023-09-06T23:19:51.682Z,17.18
2023-09-06T23:22:21.803Z,17.66
2023-09-06T23:24:54.069Z,17.90
2023-09-06T23:27:25.617Z,18.08
2023-09-06T23:30:00.017Z,18.18
2023-09-06T23:32:32.951Z,18.22
2023-09-06T23:35:08.793Z,18.30
2023-09-06T23:37:38.004Z,18.38
2023-09-06T23:40:22.343Z,18.28
2023-09-06T23:42:55.913Z,17.93
2023-09-06T23:45:26.368Z,17.66
2023-09-06T23:48:01.691Z,17.56
2023-09-06T23:50:33.498Z,17.39
2023-09-06T23:53:05.859Z,17.17
2023-09-06T23:55:34.897Z,16.91
2023-09-06T23:58:06.586Z,16.75
